createdAt,value
2019-02-26T00:00:58.812Z,5.81
2019-02-26T00:02:02.872Z,5.79
2019-02-26T00:03:04.856Z,5.77
2019-02-26T00:03:44.762Z,5.73
2019-02-26T00:04:44.819Z,5.6
2019-02-26T00:06:03.723Z,5.54
2019-02-26T00:07:00.547Z,5.47
2019-02-26T00:08:02.820Z,5.32
2019-02-26T00:09:03.869Z,5.25
2019-02-26T00:09:45.095Z,5.12
2019-02-26T00:10:46.262Z,4.98
2019-02-26T00:11:46.546Z,5.11
2019-02-26T00:12:45.048Z,5.12
2019-02-26T00:13:44.867Z,5.16
2019-02-26T00:15:02.479Z,5.16
2019-02-26T00:15:48.655Z,5.17
2019-02-26T00:16:51.186Z,5.15
2019-02-26T00:17:53.207Z,5.19
2019-02-26T00:18:45.605Z,5.22
2019-02-26T00:19:45.471Z,5.25
2019-02-26T00:20:44.763Z,5.27
2019-02-26T00:21:54.656Z,5.29
2019-02-26T00:22:44.963Z,5.33
2019-02-26T00:23:53.297Z,5.35
2019-02-26T00:24:46.886Z,5.35
2019-02-26T00:25:45.016Z,5.37
2019-02-26T00:26:45.472Z,5.37
2019-02-26T00:27:58.776Z,5.36
2019-02-26T00:28:45.991Z,5.37
2019-02-26T00:29:55.464Z,5.36
2019-02-26T00:30:44.674Z,5.22
2019-02-26T00:31:57.918Z,5.26
2019-02-26T00:32:45.168Z,5.27
2019-02-26T00:33:44.930Z,5.11
2019-02-26T00:34:44.862Z,4.96
2019-02-26T00:35:50.446Z,4.95
2019-02-26T00:36:45.157Z,5.02
2019-02-26T00:37:56.029Z,5.02
2019-02-26T00:38:44.756Z,5.04
2019-02-26T00:39:56.877Z,5.05
2019-02-26T00:40:44.878Z,5.06
2019-02-26T00:41:44.788Z,5.06
2019-02-26T00:42:45.053Z,5.05
2019-02-26T00:43:44.678Z,5.04
2019-02-26T00:44:44.686Z,5.05
2019-02-26T00:45:44.773Z,5.02
2019-02-26T00:46:44.749Z,5.05
2019-02-26T00:47:46.520Z,5.05
2019-02-26T00:48:44.662Z,5.05
2019-02-26T00:49:53.643Z,5.02
2019-02-26T00:50:45.728Z,5.05
2019-02-26T00:51:52.988Z,5.02
2019-02-26T00:52:45.582Z,5.02
2019-02-26T00:53:44.718Z,5.07
2019-02-26T00:54:45.210Z,5.06
2019-02-26T00:55:45.003Z,5.06
2019-02-26T00:56:45.183Z,5.07
2019-02-26T00:57:45.221Z,5.07
2019-02-26T00:58:50.647Z,5.07
2019-02-26T00:59:48.331Z,5.04
2019-02-26T01:00:44.696Z,5.01
2019-02-26T01:01:59.473Z,4.94
2019-02-26T01:02:44.725Z,4.94
2019-02-26T01:03:52.108Z,4.97
2019-02-26T01:04:51.149Z,4.95
2019-02-26T01:05:45.737Z,4.98
2019-02-26T01:06:44.951Z,4.94
2019-02-26T01:07:54.607Z,4.94
2019-02-26T01:08:47.329Z,4.94
2019-02-26T01:09:44.606Z,4.88
2019-02-26T01:10:46.476Z,4.89
2019-02-26T01:11:54.130Z,4.88
2019-02-26T01:12:45.510Z,4.89
2019-02-26T01:13:44.917Z,4.88
2019-02-26T01:14:50.576Z,4.9
2019-02-26T01:15:44.676Z,4.88
2019-02-26T01:16:48.527Z,4.9
2019-02-26T01:17:45.128Z,4.89
2019-02-26T01:18:53.451Z,4.88
2019-02-26T01:19:44.715Z,4.83
2019-02-26T01:21:04.339Z,4.83
2019-02-26T01:21:44.608Z,4.82
2019-02-26T01:22:45.855Z,4.82
2019-02-26T01:23:44.725Z,4.82
2019-02-26T01:24:44.594Z,4.83
2019-02-26T01:25:44.865Z,4.83
2019-02-26T01:26:44.985Z,4.84
2019-02-26T01:28:00.585Z,4.83
2019-02-26T01:29:01.081Z,4.82
2019-02-26T01:30:03.244Z,4.78
2019-02-26T01:30:45.513Z,4.8
2019-02-26T01:31:45.249Z,4.77
2019-02-26T01:32:44.920Z,4.75
2019-02-26T01:33:57.646Z,4.76
2019-02-26T01:34:49.703Z,4.74
2019-02-26T01:35:45.069Z,4.74
2019-02-26T01:36:49.876Z,4.76
2019-02-26T01:37:44.885Z,4.76
2019-02-26T01:38:53.341Z,4.75
2019-02-26T01:39:54.068Z,4.5
2019-02-26T01:40:56.232Z,4.44
2019-02-26T01:41:58.945Z,4.42
2019-02-26T01:43:05.596Z,4.47
2019-02-26T01:43:44.429Z,4.48
2019-02-26T01:44:44.862Z,4.48
2019-02-26T01:45:55.616Z,4.46
2019-02-26T01:46:44.834Z,4.44
2019-02-26T01:47:53.022Z,4.43
2019-02-26T01:48:44.550Z,4.41
2019-02-26T01:49:51.326Z,4.4
2019-02-26T01:50:44.845Z,4.39
2019-02-26T01:51:54.153Z,4.38
2019-02-26T01:52:45.483Z,4.39
2019-02-26T01:53:53.837Z,4.14
2019-02-26T01:54:44.975Z,4.19
2019-02-26T01:55:50.718Z,4.21
2019-02-26T01:56:45.663Z,4.24
2019-02-26T01:57:45.211Z,4.24
2019-02-26T01:58:45.086Z,4.23
2019-02-26T01:59:44.792Z,4.24
2019-02-26T02:00:44.588Z,4.22
2019-02-26T02:01:56.188Z,4.26
2019-02-26T02:02:44.650Z,4.26
2019-02-26T02:03:56.564Z,4.23
2019-02-26T02:04:45.167Z,4.22
2019-02-26T02:05:54.952Z,4.25
2019-02-26T02:06:44.684Z,4.23
2019-02-26T02:07:56.226Z,4.2
2019-02-26T02:08:56.696Z,4.2
2019-02-26T02:10:03.314Z,4.23
2019-02-26T02:10:44.899Z,4.17
2019-02-26T02:11:45.011Z,4.15
2019-02-26T02:12:44.571Z,4.12
2019-02-26T02:13:44.574Z,4.14
2019-02-26T02:14:44.786Z,4.11
2019-02-26T02:15:46.812Z,4.14
2019-02-26T02:16:44.824Z,4.13
2019-02-26T02:17:44.809Z,4.1
2019-02-26T02:19:00.093Z,4.09
2019-02-26T02:19:46.362Z,4.14
2019-02-26T02:20:44.588Z,4.13
2019-02-26T02:21:44.753Z,4.13
2019-02-26T02:22:46.422Z,4.14
2019-02-26T02:23:53.081Z,4.15
2019-02-26T02:24:55.789Z,4.15
2019-02-26T02:25:45.955Z,4.14
2019-02-26T02:27:00.427Z,4.14
2019-02-26T02:28:04.591Z,4.1
2019-02-26T02:28:44.783Z,4.01
2019-02-26T02:29:57.951Z,4.01
2019-02-26T02:30:44.746Z,3.99
2019-02-26T02:31:44.585Z,4.01
2019-02-26T02:33:02.237Z,4.03
2019-02-26T02:33:44.716Z,3.98
2019-02-26T02:34:44.636Z,4
2019-02-26T02:35:44.561Z,3.87
2019-02-26T02:36:45.414Z,3.82
2019-02-26T02:37:44.766Z,3.85
2019-02-26T02:38:44.876Z,3.88
2019-02-26T02:39:45.098Z,3.9
2019-02-26T02:40:55.139Z,3.93
2019-02-26T02:41:55.133Z,3.9
2019-02-26T02:42:49.716Z,3.94
2019-02-26T02:43:45.926Z,3.91
2019-02-26T02:44:53.027Z,3.92
2019-02-26T02:45:44.689Z,3.93
2019-02-26T02:46:46.999Z,3.93
2019-02-26T02:47:44.853Z,3.95
2019-02-26T02:48:44.924Z,3.91
2019-02-26T02:49:44.787Z,3.89
2019-02-26T02:50:44.945Z,3.86
2019-02-26T02:51:44.497Z,3.86
2019-02-26T02:52:45.621Z,3.85
2019-02-26T02:53:59.504Z,3.8
2019-02-26T02:54:52.050Z,3.81
2019-02-26T02:55:51.830Z,3.83
2019-02-26T02:56:44.981Z,3.83
2019-02-26T02:58:00.575Z,3.82
2019-02-26T02:58:51.969Z,3.83
2019-02-26T02:59:45.510Z,3.8
2019-02-26T03:01:00.502Z,3.81
2019-02-26T03:01:57.275Z,3.8
2019-02-26T03:02:58.499Z,3.82
2019-02-26T03:04:01.352Z,3.83
2019-02-26T03:04:45.453Z,3.83
2019-02-26T03:05:46.220Z,3.82
2019-02-26T03:06:44.851Z,3.79
2019-02-26T03:07:56.584Z,3.8
2019-02-26T03:08:53.690Z,3.81
2019-02-26T03:09:46.169Z,3.79
2019-02-26T03:10:45.310Z,3.78
2019-02-26T03:11:55.203Z,3.78
2019-02-26T03:13:03.114Z,3.71
2019-02-26T03:13:54.079Z,3.7
2019-02-26T03:14:44.858Z,3.7
2019-02-26T03:15:44.577Z,3.68
2019-02-26T03:16:53.695Z,3.69
2019-02-26T03:17:44.610Z,3.65
2019-02-26T03:18:44.620Z,3.68
2019-02-26T03:19:44.503Z,3.68
2019-02-26T03:20:44.684Z,3.66
2019-02-26T03:21:55.158Z,3.6
2019-02-26T03:22:49.500Z,3.58
2019-02-26T03:23:45.972Z,3.59
2019-02-26T03:24:45.347Z,3.55
2019-02-26T03:25:55.320Z,3.56
2019-02-26T03:26:44.781Z,3.56
2019-02-26T03:27:44.855Z,3.56
2019-02-26T03:28:53.630Z,3.55
2019-02-26T03:30:02.410Z,3.55
2019-02-26T03:30:45.146Z,3.55
2019-02-26T03:31:55.807Z,3.55
2019-02-26T03:33:05.176Z,3.52
2019-02-26T03:33:44.705Z,3.52
2019-02-26T03:34:44.502Z,3.52
2019-02-26T03:35:44.561Z,3.52
2019-02-26T03:36:46.130Z,3.52
2019-02-26T03:37:44.642Z,3.44
2019-02-26T03:39:02.984Z,3.47
2019-02-26T03:39:44.606Z,3.47
2019-02-26T03:40:45.482Z,3.37
2019-02-26T03:41:56.596Z,3.36
2019-02-26T03:42:46.662Z,3.38
2019-02-26T03:43:44.547Z,3.32
2019-02-26T03:44:47.298Z,3.31
2019-02-26T03:45:48.405Z,3.31
2019-02-26T03:46:45.374Z,3.31
2019-02-26T03:47:44.397Z,3.33
2019-02-26T03:48:44.905Z,3.32
2019-02-26T03:49:45.287Z,3.29
2019-02-26T03:50:44.973Z,3.28
2019-02-26T03:51:44.704Z,3.24
2019-02-26T03:52:44.763Z,3.2
2019-02-26T03:53:44.537Z,3.15
2019-02-26T03:54:51.012Z,3.16
2019-02-26T03:55:44.881Z,3.17
2019-02-26T03:56:44.638Z,3.17
2019-02-26T03:58:02.385Z,3.13
2019-02-26T03:58:44.577Z,3.12
2019-02-26T03:59:44.494Z,3.06
2019-02-26T04:00:47.215Z,3.03
2019-02-26T04:01:44.564Z,3.04
2019-02-26T04:02:52.400Z,2.99
2019-02-26T04:03:45.255Z,2.99
2019-02-26T04:05:08.901Z,2.97
2019-02-26T04:05:44.852Z,2.95
2019-02-26T04:06:47.380Z,2.94
2019-02-26T04:07:45.059Z,2.94
2019-02-26T04:08:56.160Z,2.92
2019-02-26T04:09:58.732Z,2.94
2019-02-26T04:11:02.110Z,2.9
2019-02-26T04:11:55.692Z,2.9
2019-02-26T04:12:58.340Z,2.9
2019-02-26T04:13:56.943Z,2.88
2019-02-26T04:14:44.594Z,2.87
2019-02-26T04:15:44.438Z,2.84
2019-02-26T04:16:44.369Z,2.83
2019-02-26T04:17:44.490Z,2.81
2019-02-26T04:18:44.604Z,2.83
2019-02-26T04:19:44.909Z,2.81
2019-02-26T04:20:46.190Z,2.73
2019-02-26T04:21:44.453Z,2.73
2019-02-26T04:22:57.341Z,2.72
2019-02-26T04:23:46.947Z,2.74
2019-02-26T04:24:44.332Z,2.75
2019-02-26T04:25:44.474Z,2.76
2019-02-26T04:26:45.063Z,2.73
2019-02-26T04:27:44.435Z,2.68
2019-02-26T04:28:47.867Z,2.71
2019-02-26T04:29:49.613Z,2.7
2019-02-26T04:30:52.673Z,2.72
2019-02-26T04:31:57.865Z,2.73
2019-02-26T04:32:49.252Z,2.73
2019-02-26T04:33:44.361Z,2.74
2019-02-26T04:34:44.446Z,2.72
2019-02-26T04:35:55.697Z,2.75
2019-02-26T04:36:47.385Z,2.72
2019-02-26T04:37:44.598Z,2.75
2019-02-26T04:38:55.796Z,2.75
2019-02-26T04:39:47.937Z,2.76
2019-02-26T04:40:44.383Z,2.8
2019-02-26T04:41:44.367Z,2.82
2019-02-26T04:42:46.379Z,2.83
2019-02-26T04:43:44.333Z,2.82
2019-02-26T04:45:09.386Z,2.84
2019-02-26T04:45:44.476Z,2.86
2019-02-26T04:46:44.504Z,2.87
2019-02-26T04:48:00.893Z,2.9
2019-02-26T04:48:44.600Z,2.88
2019-02-26T04:49:44.838Z,2.89
2019-02-26T04:50:45.016Z,2.85
2019-02-26T04:51:50.763Z,2.87
2019-02-26T04:52:44.390Z,2.89
2019-02-26T04:53:44.764Z,2.87
2019-02-26T04:54:44.771Z,2.92
2019-02-26T04:55:45.208Z,2.92
2019-02-26T04:56:51.229Z,2.92
2019-02-26T04:57:54.470Z,2.92
2019-02-26T04:58:48.086Z,2.94
2019-02-26T04:59:44.542Z,2.95
2019-02-26T05:00:45.642Z,2.9
2019-02-26T05:01:57.681Z,2.89
2019-02-26T05:02:44.315Z,2.88
2019-02-26T05:03:44.346Z,2.87
2019-02-26T05:04:46.168Z,2.9
2019-02-26T05:05:44.324Z,2.87
2019-02-26T05:06:44.627Z,2.88
2019-02-26T05:07:50.256Z,2.88
2019-02-26T05:08:44.605Z,2.92
2019-02-26T05:10:02.769Z,2.93
2019-02-26T05:11:00.113Z,2.92
2019-02-26T05:11:44.384Z,2.94
2019-02-26T05:12:44.354Z,2.93
2019-02-26T05:13:45.171Z,2.94
2019-02-26T05:14:44.381Z,2.94
2019-02-26T05:15:44.616Z,2.94
2019-02-26T05:16:44.352Z,2.94
2019-02-26T05:17:44.506Z,2.9
2019-02-26T05:18:58.766Z,2.89
2019-02-26T05:19:52.082Z,2.87
2019-02-26T05:20:48.818Z,2.9
2019-02-26T05:21:46.121Z,2.86
2019-02-26T05:22:44.473Z,2.87
2019-02-26T05:24:02.839Z,2.85
2019-02-26T05:24:53.078Z,2.84
2019-02-26T05:25:45.205Z,2.83
2019-02-26T05:26:44.488Z,2.83
2019-02-26T05:27:51.194Z,2.86
2019-02-26T05:28:51.836Z,2.85
2019-02-26T05:29:55.043Z,2.86
2019-02-26T05:30:51.573Z,2.86
2019-02-26T05:31:44.431Z,2.83
2019-02-26T05:32:44.439Z,2.85
2019-02-26T05:34:00.202Z,2.82
2019-02-26T05:34:51.105Z,2.8
2019-02-26T05:35:51.793Z,2.8
2019-02-26T05:36:46.744Z,2.79
2019-02-26T05:37:44.489Z,2.75
2019-02-26T05:38:44.494Z,2.75
2019-02-26T05:39:54.975Z,2.74
2019-02-26T05:40:56.077Z,2.74
2019-02-26T05:41:46.112Z,2.7
2019-02-26T05:42:44.748Z,2.71
2019-02-26T05:44:10.849Z,2.69
2019-02-26T05:44:44.553Z,2.69
2019-02-26T05:45:44.302Z,2.67
2019-02-26T05:47:01.855Z,2.67
2019-02-26T05:47:59.242Z,2.5
2019-02-26T05:48:51.353Z,2.47
2019-02-26T05:49:46.230Z,2.43
2019-02-26T05:50:45.078Z,2.45
2019-02-26T05:51:46.108Z,2.46
2019-02-26T05:52:44.336Z,2.47
2019-02-26T05:53:44.725Z,2.47
2019-02-26T05:54:44.317Z,2.44
2019-02-26T05:55:56.150Z,2.39
2019-02-26T05:56:50.244Z,2.41
2019-02-26T05:57:44.540Z,2.39
2019-02-26T05:58:47.422Z,2.42
2019-02-26T05:59:44.296Z,2.41
2019-02-26T06:00:44.663Z,2.44
2019-02-26T06:01:58.554Z,2.47
2019-02-26T06:02:51.333Z,2.46
2019-02-26T06:03:52.254Z,2.47
2019-02-26T06:04:47.107Z,2.46
2019-02-26T06:06:00.796Z,2.47
2019-02-26T06:06:44.486Z,2.48
2019-02-26T06:07:44.491Z,2.46
2019-02-26T06:08:44.497Z,2.46
2019-02-26T06:09:59.374Z,2.45
2019-02-26T06:10:44.629Z,2.46
2019-02-26T06:11:50.334Z,2.44
2019-02-26T06:12:47.015Z,2.44
2019-02-26T06:13:44.466Z,2.45
2019-02-26T06:14:44.443Z,2.4
2019-02-26T06:15:44.331Z,2.41
2019-02-26T06:16:56.107Z,2.24
2019-02-26T06:17:56.158Z,2.18
2019-02-26T06:18:54.704Z,2.21
2019-02-26T06:19:45.440Z,2.21
2019-02-26T06:20:46.118Z,2.18
2019-02-26T06:21:56.804Z,2.13
2019-02-26T06:22:45.067Z,2.16
2019-02-26T06:23:44.313Z,2.14
2019-02-26T06:24:44.389Z,2.14
2019-02-26T06:25:44.288Z,2.14
2019-02-26T06:26:45.858Z,2.11
2019-02-26T06:27:44.730Z,2.11
2019-02-26T06:28:53.175Z,2.11
2019-02-26T06:29:44.556Z,2.11
2019-02-26T06:30:45.067Z,2.12
2019-02-26T06:31:49.682Z,2.14
2019-02-26T06:32:45.137Z,2.13
2019-02-26T06:33:48.094Z,2.15
2019-02-26T06:34:44.005Z,2.17
2019-02-26T06:35:44.008Z,2.2
2019-02-26T06:36:53.445Z,2.25
2019-02-26T06:37:44.008Z,2.26
2019-02-26T06:38:44.009Z,2.29
2019-02-26T06:39:44.356Z,2.3
2019-02-26T06:40:51.611Z,2.31
2019-02-26T06:41:51.457Z,2.35
2019-02-26T06:42:44.252Z,2.36
2019-02-26T06:43:55.362Z,2.37
2019-02-26T06:44:51.635Z,2.38
2019-02-26T06:45:48.059Z,2.38
2019-02-26T06:46:44.260Z,2.41
2019-02-26T06:47:58.724Z,2.42
2019-02-26T06:48:44.445Z,2.42
2019-02-26T06:49:52.914Z,2.44
2019-02-26T06:50:44.371Z,2.47
2019-02-26T06:51:54.466Z,2.48
2019-02-26T06:52:51.070Z,2.49
2019-02-26T06:54:01.296Z,2.49
2019-02-26T06:55:07.846Z,2.49
2019-02-26T06:55:44.540Z,2.48
2019-02-26T06:56:52.992Z,2.47
2019-02-26T06:57:55.302Z,2.47
2019-02-26T06:58:47.731Z,2.47
2019-02-26T06:59:44.130Z,2.41
2019-02-26T07:00:55.781Z,2.36
2019-02-26T07:01:44.144Z,2.35
2019-02-26T07:02:46.610Z,2.31
2019-02-26T07:03:44.211Z,2.37
2019-02-26T07:04:44.234Z,2.29
2019-02-26T07:05:46.809Z,2.31
2019-02-26T07:06:44.246Z,2.27
2019-02-26T07:07:46.003Z,2.29
2019-02-26T07:08:53.785Z,2.22
2019-02-26T07:09:44.396Z,2.27
2019-02-26T07:10:44.485Z,2.33
2019-02-26T07:11:44.923Z,2.35
2019-02-26T07:12:50.791Z,2.36
2019-02-26T07:13:46.711Z,2.38
2019-02-26T07:14:58.394Z,2.41
2019-02-26T07:15:46.169Z,2.43
2019-02-26T07:16:44.340Z,2.45
2019-02-26T07:17:46.614Z,2.48
2019-02-26T07:18:44.155Z,2.5
2019-02-26T07:19:45.055Z,2.53
2019-02-26T07:21:00.498Z,2.55
2019-02-26T07:21:53.229Z,2.57
2019-02-26T07:22:51.861Z,2.61
2019-02-26T07:23:44.084Z,2.62
2019-02-26T07:24:54.152Z,2.65
2019-02-26T07:25:44.452Z,2.64
2019-02-26T07:26:48.608Z,2.69
2019-02-26T07:27:44.611Z,2.73
2019-02-26T07:28:51.275Z,2.75
2019-02-26T07:29:52.616Z,2.79
2019-02-26T07:30:47.242Z,2.8
2019-02-26T07:31:44.446Z,2.84
2019-02-26T07:32:48.610Z,2.86
2019-02-26T07:33:44.330Z,2.87
2019-02-26T07:34:52.426Z,2.9
2019-02-26T07:35:44.528Z,2.93
2019-02-26T07:36:52.724Z,2.96
2019-02-26T07:37:44.249Z,2.98
2019-02-26T07:38:56.736Z,2.98
2019-02-26T07:39:51.800Z,3.01
2019-02-26T07:40:44.792Z,3.05
2019-02-26T07:41:54.589Z,3.08
2019-02-26T07:42:49.879Z,3.1
2019-02-26T07:43:55.038Z,3.14
2019-02-26T07:44:44.395Z,3.18
2019-02-26T07:45:44.633Z,3.2
2019-02-26T07:46:45.941Z,3.23
2019-02-26T07:47:45.558Z,3.24
2019-02-26T07:49:06.871Z,3.31
2019-02-26T07:49:44.923Z,3.34
2019-02-26T07:50:51.007Z,3.38
2019-02-26T07:51:45.084Z,3.41
2019-02-26T07:52:59.578Z,3.44
2019-02-26T07:54:00.978Z,3.49
2019-02-26T07:54:52.098Z,3.52
2019-02-26T07:55:44.473Z,3.57
2019-02-26T07:56:44.040Z,3.63
2019-02-26T07:57:53.498Z,3.65
2019-02-26T07:58:44.500Z,3.7
2019-02-26T07:59:50.473Z,3.72
2019-02-26T08:00:52.650Z,3.76
2019-02-26T08:01:49.928Z,3.75
2019-02-26T08:02:44.041Z,3.76
2019-02-26T08:03:53.462Z,3.8
2019-02-26T08:04:44.138Z,3.8
2019-02-26T08:05:44.255Z,3.87
2019-02-26T08:06:44.038Z,3.89
2019-02-26T08:07:56.793Z,3.95
2019-02-26T08:08:49.167Z,3.97
2019-02-26T08:09:44.262Z,4.01
2019-02-26T08:10:53.391Z,4.05
2019-02-26T08:11:49.364Z,4.06
2019-02-26T08:12:44.270Z,4.11
2019-02-26T08:13:44.342Z,4.13
2019-02-26T08:14:50.401Z,4.17
2019-02-26T08:15:44.503Z,4.2
2019-02-26T08:16:44.214Z,4.24
2019-02-26T08:18:05.384Z,4.25
2019-02-26T08:18:44.241Z,4.27
2019-02-26T08:19:49.697Z,4.31
2019-02-26T08:20:44.121Z,4.37
2019-02-26T08:21:57.254Z,4.39
2019-02-26T08:22:44.077Z,4.44
2019-02-26T08:23:52.955Z,4.48
2019-02-26T08:24:58.242Z,4.5
2019-02-26T08:25:44.158Z,4.52
2019-02-26T08:26:49.957Z,4.58
2019-02-26T08:27:44.389Z,4.59
2019-02-26T08:28:48.447Z,4.61
2019-02-26T08:29:44.115Z,4.66
2019-02-26T08:30:57.540Z,4.68
2019-02-26T08:32:01.222Z,4.77
2019-02-26T08:33:07.196Z,4.8
2019-02-26T08:33:52.046Z,4.85
2019-02-26T08:34:45.845Z,4.88
2019-02-26T08:35:44.756Z,4.9
2019-02-26T08:36:47.104Z,4.94
2019-02-26T08:37:44.178Z,4.99
2019-02-26T08:38:45.865Z,5
2019-02-26T08:39:44.258Z,5.07
2019-02-26T08:40:44.291Z,5.08
2019-02-26T08:41:44.587Z,5.12
2019-02-26T08:42:44.498Z,5.14
2019-02-26T08:43:58.999Z,5.18
2019-02-26T08:44:58.416Z,5.23
2019-02-26T08:45:45.823Z,5.26
2019-02-26T08:46:49.248Z,5.35
2019-02-26T08:47:44.114Z,5.42
2019-02-26T08:48:51.060Z,5.47
2019-02-26T08:49:47.801Z,5.53
2019-02-26T08:50:46.663Z,5.51
2019-02-26T08:51:44.375Z,5.54
2019-02-26T08:52:58.941Z,5.58
2019-02-26T08:53:57.410Z,5.59
2019-02-26T08:54:44.175Z,5.65
2019-02-26T08:55:44.156Z,5.69
2019-02-26T08:56:44.092Z,5.84
2019-02-26T08:57:44.696Z,5.9
2019-02-26T08:58:45.705Z,5.92
2019-02-26T08:59:54.854Z,5.93
2019-02-26T09:00:44.250Z,5.95
2019-02-26T09:01:44.418Z,6.03
2019-02-26T09:02:56.945Z,6.07
2019-02-26T09:03:44.123Z,6.11
2019-02-26T09:04:48.204Z,6.12
2019-02-26T09:05:44.326Z,6.17
2019-02-26T09:06:44.093Z,6.27
2019-02-26T09:07:50.894Z,6.39
2019-02-26T09:08:44.804Z,6.39
2019-02-26T09:09:57.874Z,6.44
2019-02-26T09:10:48.940Z,6.47
2019-02-26T09:11:45.207Z,6.55
2019-02-26T09:12:52.805Z,6.59
2019-02-26T09:13:44.262Z,6.63
2019-02-26T09:14:50.278Z,6.71
2019-02-26T09:15:44.628Z,6.76
2019-02-26T09:17:04.617Z,6.8
2019-02-26T09:17:44.794Z,6.85
2019-02-26T09:18:43.736Z,6.96
2019-02-26T09:19:44.378Z,6.96
2019-02-26T09:20:45.781Z,7.07
2019-02-26T09:21:55.055Z,7.15
2019-02-26T09:23:01.678Z,7.18
2019-02-26T09:24:07.567Z,7.27
2019-02-26T09:24:44.259Z,7.31
2019-02-26T09:26:06.999Z,7.33
2019-02-26T09:26:44.270Z,7.42
2019-02-26T09:27:44.400Z,7.47
2019-02-26T09:28:57.310Z,7.52
2019-02-26T09:29:51.669Z,7.48
2019-02-26T09:30:44.191Z,7.48
2019-02-26T09:31:45.762Z,7.58
2019-02-26T09:32:45.271Z,7.59
2019-02-26T09:33:45.829Z,7.66
2019-02-26T09:34:44.139Z,7.71
2019-02-26T09:35:56.947Z,7.74
2019-02-26T09:37:05.455Z,7.82
2019-02-26T09:38:01.165Z,7.92
2019-02-26T09:38:51.672Z,7.93
2019-02-26T09:39:44.144Z,7.95
2019-02-26T09:40:57.291Z,7.93
2019-02-26T09:41:45.864Z,7.99
2019-02-26T09:43:00.405Z,8.04
2019-02-26T09:43:48.421Z,8.01
2019-02-26T09:44:44.975Z,8.09
2019-02-26T09:45:53.085Z,8.1
2019-02-26T09:46:44.366Z,8.14
2019-02-26T09:47:58.471Z,8.27
2019-02-26T09:48:46.351Z,8.35
2019-02-26T09:49:43.905Z,8.4
2019-02-26T09:50:48.973Z,8.44
2019-02-26T09:51:44.173Z,8.5
2019-02-26T09:52:59.516Z,8.56
2019-02-26T09:53:44.392Z,8.54
2019-02-26T09:54:55.368Z,8.57
2019-02-26T09:55:44.163Z,8.59
2019-02-26T09:56:44.163Z,8.66
2019-02-26T09:57:44.386Z,8.7
2019-02-26T09:58:51.159Z,8.78
2019-02-26T09:59:43.844Z,8.89
2019-02-26T10:00:54.535Z,8.95
2019-02-26T10:01:43.869Z,8.96
2019-02-26T10:02:52.373Z,8.97
2019-02-26T10:03:43.871Z,9.01
2019-02-26T10:04:54.574Z,9.06
2019-02-26T10:05:58.119Z,9.08
2019-02-26T10:06:47.757Z,9.1
2019-02-26T10:07:44.256Z,9.17
2019-02-26T10:08:56.372Z,9.19
2019-02-26T10:09:48.799Z,9.35
2019-02-26T10:10:45.474Z,9.33
2019-02-26T10:11:51.882Z,9.37
2019-02-26T10:12:44.184Z,9.51
2019-02-26T10:13:51.460Z,9.46
2019-02-26T10:14:44.027Z,9.53
2019-02-26T10:15:45.111Z,9.55
2019-02-26T10:16:57.101Z,9.55
2019-02-26T10:17:45.520Z,9.63
2019-02-26T10:18:56.978Z,9.78
2019-02-26T10:19:43.918Z,9.76
2019-02-26T10:20:54.817Z,9.87
2019-02-26T10:21:45.215Z,9.94
2019-02-26T10:22:47.400Z,10.01
2019-02-26T10:24:04.112Z,10.08
2019-02-26T10:24:45.661Z,10.29
2019-02-26T10:25:45.507Z,10.38
2019-02-26T10:26:45.687Z,10.38
2019-02-26T10:27:48.077Z,10.37
2019-02-26T10:29:08.136Z,10.39
2019-02-26T10:29:50.156Z,10.4
2019-02-26T10:30:44.297Z,10.43
2019-02-26T10:31:43.821Z,10.5
2019-02-26T10:32:47.262Z,10.55
2019-02-26T10:33:51.038Z,10.66
2019-02-26T10:34:44.097Z,10.93
2019-02-26T10:35:50.144Z,11.01
2019-02-26T10:36:52.115Z,11.06
2019-02-26T10:37:44.255Z,11.08
2019-02-26T10:38:44.104Z,11.11
2019-02-26T10:39:55.164Z,11.08
2019-02-26T10:41:02.070Z,11.08
2019-02-26T10:41:47.013Z,11.06
2019-02-26T10:42:43.806Z,11.17
2019-02-26T10:43:44.160Z,11.31
2019-02-26T10:44:44.140Z,11.35
2019-02-26T10:45:55.066Z,11.3
2019-02-26T10:46:44.779Z,11.3
2019-02-26T10:47:44.403Z,11.33
2019-02-26T10:48:53.056Z,11.38
2019-02-26T10:49:56.628Z,11.39
2019-02-26T10:50:52.226Z,11.5
2019-02-26T10:51:44.188Z,11.53
2019-02-26T10:52:43.827Z,11.7
2019-02-26T10:53:44.237Z,11.77
2019-02-26T10:54:46.875Z,11.76
2019-02-26T10:55:43.965Z,11.83
2019-02-26T10:56:45.204Z,11.86
2019-02-26T10:57:44.166Z,11.92
2019-02-26T10:58:45.626Z,12.08
2019-02-26T10:59:45.745Z,12.1
2019-02-26T11:00:44.466Z,12.17
2019-02-26T11:01:44.133Z,12.18
2019-02-26T11:02:54.559Z,12.29
2019-02-26T11:03:55.423Z,12.29
2019-02-26T11:04:55.706Z,12.38
2019-02-26T11:05:52.613Z,12.39
2019-02-26T11:06:47.237Z,12.47
2019-02-26T11:07:43.890Z,12.58
2019-02-26T11:08:44.122Z,12.65
2019-02-26T11:09:59.191Z,12.59
2019-02-26T11:10:52.740Z,12.59
2019-02-26T11:11:43.892Z,12.7
2019-02-26T11:12:59.954Z,12.82
2019-02-26T11:13:54.038Z,12.81
2019-02-26T11:14:44.583Z,12.9
2019-02-26T11:15:44.135Z,12.87
2019-02-26T11:16:43.866Z,12.83
2019-02-26T11:17:56.223Z,12.83
2019-02-26T11:18:47.961Z,12.84
2019-02-26T11:19:43.932Z,12.85
2019-02-26T11:20:59.506Z,12.88
2019-02-26T11:21:43.726Z,12.99
2019-02-26T11:22:52.244Z,13.05
2019-02-26T11:23:46.692Z,13.03
2019-02-26T11:24:44.165Z,13.07
2019-02-26T11:25:43.779Z,13.11
2019-02-26T11:26:44.608Z,13.08
2019-02-26T11:27:48.739Z,13.11
2019-02-26T11:28:48.312Z,13.2
2019-02-26T11:29:43.947Z,13.3
2019-02-26T11:30:56.866Z,13.61
2019-02-26T11:31:49.943Z,13.6
2019-02-26T11:32:45.443Z,13.61
2019-02-26T11:33:44.091Z,13.67
2019-02-26T11:34:44.034Z,13.72
2019-02-26T11:35:51.786Z,13.85
2019-02-26T11:36:44.076Z,13.91
2019-02-26T11:37:58.410Z,14.01
2019-02-26T11:38:47.356Z,14.07
2019-02-26T11:39:43.754Z,14.03
2019-02-26T11:40:43.725Z,14.12
2019-02-26T11:41:43.799Z,14.12
2019-02-26T11:42:51.486Z,14.2
2019-02-26T11:43:44.159Z,14.3
2019-02-26T11:44:43.857Z,14.29
2019-02-26T11:45:45.573Z,14.27
2019-02-26T11:46:57.123Z,14.3
2019-02-26T11:47:44.106Z,14.32
2019-02-26T11:48:57.681Z,14.33
2019-02-26T11:49:47.026Z,14.39
2019-02-26T11:50:45.376Z,14.42
2019-02-26T11:51:44.029Z,14.43
2019-02-26T11:52:44.113Z,14.56
2019-02-26T11:53:46.498Z,14.55
2019-02-26T11:54:44.916Z,14.56
2019-02-26T11:55:45.549Z,14.64
2019-02-26T11:56:52.861Z,14.62
2019-02-26T11:57:50.072Z,14.61
2019-02-26T11:58:43.974Z,14.68
2019-02-26T11:59:43.742Z,14.73
2019-02-26T12:00:51.356Z,14.71
2019-02-26T12:01:43.751Z,14.71
2019-02-26T12:02:44.151Z,14.7
2019-02-26T12:03:44.283Z,14.78
2019-02-26T12:04:44.019Z,14.81
2019-02-26T12:05:44.666Z,14.8
2019-02-26T12:06:43.828Z,14.91
2019-02-26T12:07:43.696Z,14.92
2019-02-26T12:08:50.250Z,15
2019-02-26T12:09:44.761Z,15.02
2019-02-26T12:10:43.977Z,15.04
2019-02-26T12:11:44.069Z,15.03
2019-02-26T12:12:43.890Z,15.1
2019-02-26T12:13:53.359Z,15.19
2019-02-26T12:14:48.839Z,15.21
2019-02-26T12:15:43.863Z,15.27
2019-02-26T12:16:44.298Z,15.35
2019-02-26T12:17:43.688Z,15.33
2019-02-26T12:18:47.260Z,15.39
2019-02-26T12:19:43.856Z,15.41
2019-02-26T12:20:49.059Z,15.37
2019-02-26T12:21:43.688Z,15.4
2019-02-26T12:22:55.647Z,15.4
2019-02-26T12:23:47.036Z,15.4
2019-02-26T12:24:43.808Z,15.42
2019-02-26T12:25:44.112Z,15.5
2019-02-26T12:26:54.925Z,15.53
2019-02-26T12:27:48.448Z,15.46
2019-02-26T12:28:44.334Z,15.5
2019-02-26T12:29:54.882Z,15.5
2019-02-26T12:30:47.105Z,15.54
2019-02-26T12:31:45.509Z,15.56
2019-02-26T12:32:55.381Z,15.52
2019-02-26T12:33:45.495Z,15.48
2019-02-26T12:34:51.675Z,15.48
2019-02-26T12:35:44.162Z,15.54
2019-02-26T12:36:44.413Z,15.6
2019-02-26T12:38:44.255Z,15.61
2019-02-26T12:39:58.070Z,15.66
2019-02-26T12:40:53.674Z,15.75
2019-02-26T12:41:48.378Z,15.83
2019-02-26T12:42:43.982Z,15.85
2019-02-26T12:43:46.741Z,15.84
2019-02-26T12:44:45.793Z,15.89
2019-02-26T12:45:44.362Z,16
2019-02-26T12:47:00.641Z,16.14
2019-02-26T12:47:55.468Z,16.12
2019-02-26T12:48:50.626Z,16.06
2019-02-26T12:49:45.431Z,16.06
2019-02-26T12:50:43.932Z,16.03
2019-02-26T12:51:43.913Z,16.12
2019-02-26T12:52:57.393Z,16.2
2019-02-26T12:53:50.338Z,16.24
2019-02-26T12:54:43.785Z,16.35
2019-02-26T12:55:44.071Z,16.38
2019-02-26T12:56:43.756Z,16.44
2019-02-26T12:57:59.764Z,16.52
2019-02-26T12:58:54.882Z,16.57
2019-02-26T12:59:44.104Z,16.62
2019-02-26T13:00:44.473Z,16.66
2019-02-26T13:01:52.213Z,16.66
2019-02-26T13:02:52.680Z,16.71
2019-02-26T13:03:55.662Z,16.75
2019-02-26T13:04:53.730Z,16.79
2019-02-26T13:05:51.982Z,16.78
2019-02-26T13:06:52.314Z,16.86
2019-02-26T13:07:44.111Z,16.81
2019-02-26T13:08:51.105Z,16.8
2019-02-26T13:10:58.614Z,16.88
2019-02-26T13:12:03.095Z,16.87
2019-02-26T13:13:08.202Z,16.96
2019-02-26T13:14:43.685Z,16.99
2019-02-26T13:15:45.448Z,17.01
2019-02-26T13:17:00.314Z,16.97
2019-02-26T13:17:54.803Z,17.01
2019-02-26T13:19:44.293Z,16.93